Latest Weather Observations for Hobart

IDT60801

Issued at 9:01 am EDT Thursday 29 January 2015 (issued every 30 minutes, with the page automatically refreshed every 10 minutes)

About weather observations | Map of weather stations | Latest weather observations for TAS | Other Formats
Station Details ID: 094029 Name: HOBART (ELLERSLIE ROAD) Lat: -42.89 Lon: 147.33 Height: 50.5 m
Data from the previous 72 hours. | See also: Recent months at Hobart
Date/Time
EDT
Temp
°C
App
Temp
°C
Dew
Point
Rel
Hum
%
Delta-T
°C
Wind Press
QNH
hPa
Press
MSL
hPa
Rain
since 9 am
mm
Dir
 
Spd
km/h
Gust
km/h
Spd
kts
Gust
kts
29/08:30am 11.3 7.7 8.4 82 1.4 SSW 17 24 9 13 1025.6 1025.6 1.2
29/08:00am 11.3 7.1 8.4 82 1.4 S 20 33 11 18 1025.6 1025.6 1.2
29/07:30am 12.3 8.4 6.9 69 2.6 S 17 26 9 14 1025.4 1025.4 1.0
29/07:00am 12.1 6.2 7.6 74 2.2 SSE 28 37 15 20 1025.3 1025.3 1.0
29/06:30am 11.2 6.9 7.7 79 1.7 SSW 20 28 11 15 1025.0 1025.0 1.0
29/06:00am 11.1 6.4 7.8 80 1.6 SSW 22 32 12 17 1024.7 1024.8 1.0
29/05:30am 11.4 6.3 7.7 78 1.8 SSW 24 33 13 18 1024.7 1024.7 1.0
29/05:00am 12.4 7.4 6.5 67 2.8 SSE 22 39 12 21 1024.6 1024.6 1.0
29/04:30am 11.5 7.3 8.4 81 1.5 SSW 20 30 11 16 1024.4 1024.4 1.0
29/04:00am 11.5 7.3 8.4 81 1.5 SSW 20 28 11 15 1024.4 1024.4 1.0
29/03:30am 11.2 7.2 8.1 81 1.5 SSW 19 30 10 16 1024.6 1024.6 1.0
29/03:00am 11.3 7.7 8.4 82 1.4 SSW 17 22 9 12 1024.8 1024.8 1.0
29/02:30am 11.3 7.9 9.1 86 1.1 SSW 17 24 9 13 1024.9 1024.9 1.0
29/02:00am 11.3 7.4 9.3 87 1.0 SSW 20 32 11 17 1025.1 1025.1 0.8
29/01:30am 11.2 7.2 9.0 86 1.1 SSW 20 30 11 16 1025.2 1025.2 0.6
29/01:00am 11.2 7.4 9.2 87 1.0 SSW 19 26 10 14 1025.5 1025.5 0.6
29/12:30am 11.2 7.7 8.8 85 1.2 SSW 17 20 9 11 1025.8 1025.8 0.6
29/12:00am 11.1 6.3 8.9 86 1.1 SSE 24 37 13 20 1025.9 1026.0 0.2
 
Date/Time
EDT
Temp
°C
App
Temp
°C
Dew
Point
Rel
Hum
%
Delta-T
°C
Wind Press
QNH
hPa
Press
MSL
hPa
Rain
since 9 am
mm
Dir
 
Spd
km/h
Gust
km/h
Spd
kts
Gust
kts
28/11:30pm 12.2 7.8 6.5 68 2.7 SSW 19 28 10 15 1025.6 1025.6 0.2
28/11:00pm 12.4 7.6 5.8 64 3.1 SSW 20 28 11 15 1025.8 1025.8 0.2
28/10:30pm 12.4 7.7 5.2 61 3.3 SSW 19 26 10 14 1025.9 1025.9 0.2
28/10:00pm 12.5 7.8 5.1 60 3.4 SSW 19 28 10 15 1026.2 1026.2 0.2
28/09:30pm 12.7 8.0 5.1 60 3.5 SSW 19 26 10 14 1026.2 1026.2 0.2
28/09:00pm 13.1 8.4 5.1 58 3.7 SSW 19 28 10 15 1025.9 1025.9 0.2
28/08:30pm 13.3 7.6 5.1 57 3.8 SSE 24 35 13 19 1025.7 1025.7 0.2
28/08:00pm 13.4 7.9 5.7 59 3.6 SSE 24 39 13 21 1025.6 1025.6 0.2
28/07:30pm 13.7 7.3 5.4 57 3.9 SSE 28 39 15 21 1025.4 1025.4 0.2
28/07:00pm 13.9 7.6 5.6 57 3.9 SSE 28 41 15 22 1025.3 1025.3 0.2
28/06:30pm 14.0 7.5 4.7 53 4.3 SSE 28 37 15 20 1025.4 1025.4 0.2
28/06:00pm 14.4 8.6 4.4 51 4.6 SSE 24 33 13 18 1025.2 1025.3 0.2
28/05:30pm 14.1 7.6 4.5 52 4.4 S 28 39 15 21 1025.1 1025.1 0.2
28/05:00pm 14.3 8.2 4.8 53 4.4 SSE 26 39 14 21 1025.1 1025.1 0.2
28/04:30pm 14.8 8.6 4.4 49 4.8 SSE 26 37 14 20 1025.0 1025.0 0.2
28/04:00pm 14.3 7.4 4.5 51 4.5 SSE 30 44 16 24 1025.0 1025.0 0.2
28/03:30pm 14.7 7.6 3.7 47 5.0 SSE 30 41 16 22 1025.0 1025.0 0.2
28/03:00pm 14.5 7.8 3.4 47 5.0 SSE 28 39 15 21 1025.2 1025.2 0.2
28/02:30pm 14.4 7.8 4.1 50 4.7 SSE 28 39 15 21 1025.2 1025.2 0.2
28/02:00pm 14.3 7.9 3.4 48 4.9 SSE 26 39 14 21 1025.1 1025.1 0.2
28/01:30pm 15.1 10.5 5.4 52 4.6 SSE 19 32 10 17 1025.2 1025.2 0.2
28/01:00pm 13.4 8.5 6.7 64 3.2 S 22 39 12 21 1025.4 1025.4 0.2
28/12:30pm 12.4 6.7 8.3 76 2.0 S 28 43 15 23 1025.5 1025.5 0.0
28/12:15pm 13.0 6.8 7.9 71 2.5 SSE 30 48 16 26 1025.3 1025.3 0.0
28/12:00pm 14.7 9.2 6.1 56 4.1 S 24 37 13 20 1025.2 1025.2 0.0
28/11:30am 13.9 8.1 6.4 60 3.6 SE 26 35 14 19 1025.1 1025.1 0.0
28/11:00am 14.4 8.5 4.1 50 4.7 S 24 33 13 18 1025.0 1025.0 0.0
28/10:30am 13.2 8.9 7.0 66 3.0 SSE 19 28 10 15 1025.1 1025.1 0.0
28/10:00am 12.7 7.4 6.6 66 2.9 S 24 41 13 22 1024.9 1024.9 0.0
28/09:30am 14.1 8.5 5.6 56 4.0 SSW 24 35 13 19 1024.4 1024.4 0.0
28/09:00am 13.5 8.2 6.9 64 3.2 SSW 24 33 13 18 1024.1 1024.0 2.2
28/08:30am 12.9 7.8 7.6 70 2.6 SSW 24 35 13 19 1023.9 1023.8 2.2
28/08:00am 13.1 9.3 7.6 69 2.7 SSW 17 26 9 14 1023.6 1023.5 2.2
28/07:30am 12.3 8.1 7.6 73 2.3 SSW 19 30 10 16 1023.3 1023.2 2.2
28/07:00am 11.2 7.4 7.7 79 1.7 SSW 17 26 9 14 1023.0 1022.9 2.2
28/06:30am 11.5 6.6 6.9 73 2.2 SSW 22 35 12 19 1022.7 1022.6 2.2
28/06:00am 11.7 8.8 6.6 71 2.4 SSW 11 17 6 9 1022.5 1022.4 2.2
28/05:30am 11.7 7.1 5.7 66 2.8 SSW 19 24 10 13 1022.2 1022.1 2.2
28/05:00am 11.1 7.3 5.7 69 2.5 SSW 15 20 8 11 1021.9 1021.8 2.2
28/04:30am 11.2 7.4 5.6 68 2.6 SSW 15 20 8 11 1021.8 1021.7 2.2
28/04:00am 11.0 6.7 5.1 67 2.7 SSW 17 20 9 11 1021.8 1021.7 2.2
28/03:30am 10.7 6.3 4.7 66 2.7 SSW 17 24 9 13 1021.9 1021.8 2.2
28/03:00am 10.5 6.9 5.2 70 2.4 SSW 13 17 7 9 1022.1 1022.0 2.2
28/02:30am 11.0 7.4 5.1 67 2.7 SW 13 20 7 11 1022.2 1022.1 2.2
28/02:00am 11.4 6.3 5.8 68 2.6 SW 22 28 12 15 1022.4 1022.3 2.2
28/01:30am 11.8 7.1 6.0 67 2.7 SW 20 28 11 15 1022.3 1022.2 2.2
28/01:00am 12.0 7.3 6.0 66 2.8 SW 20 33 11 18 1022.3 1022.2 2.2
28/12:30am 12.1 8.0 6.4 68 2.7 SSW 17 26 9 14 1022.2 1022.1 2.2
28/12:00am 12.5 9.2 6.6 67 2.8 SSW 13 22 7 12 1022.2 1022.1 2.2
 
Date/Time
EDT
Temp
°C
App
Temp
°C
Dew
Point
Rel
Hum
%
Delta-T
°C
Wind Press
QNH
hPa
Press
MSL
hPa
Rain
since 9 am
mm
Dir
 
Spd
km/h
Gust
km/h
Spd
kts
Gust
kts
27/11:30pm 12.5 9.4 7.1 69 2.6 SSW 13 19 7 10 1022.1 1022.0 2.2
27/11:00pm 12.5 8.6 7.1 69 2.6 SSW 17 22 9 12 1022.1 1022.0 2.2
27/10:30pm 12.6 8.1 7.0 68 2.7 SSW 20 30 11 16 1021.7 1021.6 2.2
27/10:00pm 12.8 8.3 7.0 68 2.8 SSW 20 30 11 16 1021.5 1021.4 2.2
27/09:30pm 13.1 8.6 6.9 66 3.0 SSW 20 30 11 16 1021.1 1021.0 2.2
27/09:00pm 13.3 8.9 7.3 67 2.9 S 20 33 11 18 1020.8 1020.7 2.2
27/08:30pm 13.6 8.5 7.7 67 2.9 S 24 39 13 21 1020.5 1020.4 2.2
27/08:00pm 13.6 9.6 8.4 71 2.6 S 19 28 10 15 1020.1 1020.0 2.2
27/07:30pm 13.8 9.9 8.8 72 2.5 S 19 33 10 18 1019.7 1019.6 2.2
27/07:00pm 14.1 11.6 9.8 75 2.2 SE 13 28 7 15 1019.5 1019.4 2.2
27/06:30pm 14.1 12.6 10.5 79 1.9 SSE 9 13 5 7 1019.2 1019.1 2.2
27/06:00pm 14.6 11.2 9.1 69 2.8 S 17 20 9 11 1019.0 1018.9 2.2
27/05:30pm 14.8 11.5 8.2 64 3.3 SSE 15 20 8 11 1018.9 1018.8 2.2
27/05:00pm 14.7 11.8 9.7 72 2.6 SSW 15 22 8 12 1018.6 1018.5 2.2
27/04:30pm 15.6 13.1 11.1 74 2.4 S 15 22 8 12 1018.6 1018.5 2.0
27/04:00pm 13.7 10.2 10.8 83 1.5 SSW 20 30 11 16 1018.6 1018.5 1.8
27/03:30pm 15.6 13.0 7.6 59 4.0 SE 11 17 6 9 1018.2 1018.1 0.6
27/03:00pm 15.3 11.8 8.8 65 3.3 SE 17 20 9 11 1018.0 1017.9 0.4
27/02:30pm 15.9 12.7 8.4 61 3.8 ESE 15 19 8 10 1017.9 1017.8 0.4
27/02:00pm 14.5 12.0 8.3 66 3.1 SE 11 17 6 9 1018.1 1018.0 0.4
27/01:30pm 14.4 11.4 9.1 70 2.7 SE 15 20 8 11 1018.3 1018.2 0.0
27/01:00pm 15.8 12.5 6.3 53 4.6 E 13 17 7 9 1018.1 1018.0 0.0
27/12:30pm 15.6 11.5 4.5 47 5.2 SSE 15 20 8 11 1018.0 1017.9 0.0
27/12:00pm 15.1 12.3 5.1 51 4.7 SE 9 13 5 7 1017.9 1017.8 0.0
27/11:30am 15.4 11.9 5.5 51 4.7 SE 13 17 7 9 1018.0 1017.9 0.0
27/11:00am 14.8 10.8 5.0 52 4.6 SE 15 22 8 12 1018.2 1018.1 0.0
27/10:30am 15.7 12.5 4.9 48 5.1 ESE 11 17 6 9 1018.1 1018.0 0.0
27/10:00am 16.3 13.3 6.0 50 5.0 NE 11 13 6 7 1017.9 1017.8 0.0
27/09:30am 16.4 13.4 6.1 50 5.0 N 11 17 6 9 1017.9 1017.8 0.0
27/09:00am 15.3 12.0 6.4 55 4.3 N 13 20 7 11 1017.8 1017.7 0.0
27/08:30am 14.0 11.9 6.5 60 3.6 NNW 7 11 4 6 1017.8 1017.7 0.0
27/08:00am 12.7 10.7 6.2 64 3.1 N 6 11 3 6 1017.7 1017.6 0.0
27/07:30am 12.4 11.2 6.3 66 2.9 NNW 2 7 1 4 1017.4 1017.3 0.0
27/07:00am 12.0 10.0 7.2 72 2.3 WSW 7 11 4 6 1017.0 1016.9 0.0
27/06:30am 11.7 8.3 5.7 66 2.8 NNW 13 17 7 9 1016.7 1016.6 0.0
27/06:00am 11.8 9.7 6.5 70 2.5 NW 7 11 4 6 1016.5 1016.4 0.0
27/05:30am 12.0 11.0 7.5 74 2.2 NW 2 6 1 3 1016.4 1016.3 0.0
27/05:00am 12.1 11.1 7.3 72 2.3 W 2 7 1 4 1016.3 1016.2 0.0
27/04:30am 12.7 11.4 6.2 64 3.1 NNE 2 6 1 3 1016.4 1016.3 0.0
27/04:00am 13.2 12.6 8.8 74 2.2 N 2 6 1 3 1016.6 1016.5 0.0
27/03:30am 13.4 12.1 9.3 76 2.1 ENE 6 9 3 5 1016.9 1016.8 0.0
27/03:00am 13.1 10.9 6.4 64 3.2 SSW 7 11 4 6 1017.0 1016.9 0.0
27/02:30am 12.9 11.0 5.1 59 3.6 WSW 4 7 2 4 1017.2 1017.1 0.0
27/02:00am 12.5 10.1 5.1 60 3.4 WSW 7 9 4 5 1017.2 1017.1 0.0
27/01:30am 12.6 10.2 4.5 58 3.7 W 6 9 3 5 1017.3 1017.2 0.0
27/01:00am 12.3 10.0 4.9 60 3.4 W 6 9 3 5 1017.4 1017.3 0.0
27/12:30am 12.4 9.5 4.5 58 3.6 WSW 9 11 5 6 1017.4 1017.3 0.0
27/12:00am 12.8 10.3 4.5 57 3.8 WSW 7 9 4 5 1017.4 1017.3 0.0
 
Date/Time
EDT
Temp
°C
App
Temp
°C
Dew
Point
Rel
Hum
%
Delta-T
°C
Wind Press
QNH
hPa
Press
MSL
hPa
Rain
since 9 am
mm
Dir
 
Spd
km/h
Gust
km/h
Spd
kts
Gust
kts
26/11:30pm 13.5 10.5 4.1 53 4.3 NW 9 13 5 7 1017.5 1017.4 0.0
26/11:00pm 13.7 11.6 4.1 52 4.4 NNW 4 7 2 4 1017.3 1017.2 0.0
26/10:30pm 14.3 11.6 3.8 49 4.8 N 7 9 4 5 1017.3 1017.2 0.0
26/10:00pm 14.8 10.6 3.9 48 5.0 ENE 15 19 8 10 1017.1 1017.0 0.0
26/09:30pm 14.5 12.6 2.6 44 5.3 SE 2 13 1 7 1016.7 1016.6 0.0
26/09:00pm 14.8 12.5 2.7 44 5.4 SE 4 7 2 4 1016.3 1016.2 0.0
26/08:30pm 15.1 11.6 3.5 46 5.3 SW 11 15 6 8 1016.0 1015.9 0.0
26/08:00pm 16.0 11.0 1.5 37 6.4 W 17 26 9 14 1015.5 1015.4 0.0
26/07:30pm 16.4 11.9 2.4 39 6.3 W 15 22 8 12 1015.2 1015.1 0.0
26/07:00pm 16.7 12.2 2.3 38 6.5 WNW 15 20 8 11 1014.8 1014.7 0.0
26/06:30pm 17.0 11.6 1.5 35 6.9 NW 19 32 10 17 1014.6 1014.5 0.0
26/06:00pm 17.5 13.1 2.6 37 6.8 WNW 15 26 8 14 1014.2 1014.1 0.0
26/05:30pm 17.8 13.3 4.3 40 6.4 SW 17 24 9 13 1014.1 1014.0 0.0
26/05:00pm 17.4 13.9 3.4 39 6.5 SW 11 19 6 10 1014.1 1014.0 0.0
26/04:30pm 18.0 14.3 2.5 35 7.1 NW 11 20 6 11 1014.2 1014.1 0.0
26/04:00pm 18.1 14.3 1.7 33 7.4 WSW 11 20 6 11 1014.0 1013.9 0.0
26/03:30pm 17.9 14.0 1.3 32 7.4 NW 11 22 6 12 1013.7 1013.6 0.0
26/03:00pm 18.6 14.9 2.2 33 7.5 WNW 11 24 6 13 1013.6 1013.5 0.0
26/02:30pm 18.8 15.0 1.9 32 7.7 NNW 11 24 6 13 1013.5 1013.4 0.0
26/02:00pm 18.9 14.8 2.1 32 7.7 WNW 13 24 7 13 1013.6 1013.5 0.0
26/01:30pm 18.3 13.7 1.7 33 7.5 SW 15 28 8 15 1013.4 1013.3 0.0
26/01:00pm 18.2 12.2 0.8 31 7.7 SW 22 39 12 21 1013.3 1013.2 0.0
26/12:30pm 18.6 14.2 2.5 34 7.4 W 15 28 8 15 1013.4 1013.3 0.0
26/12:00pm 18.0 13.1 4.0 39 6.6 NW 19 30 10 16 1013.4 1013.3 0.0
26/11:30am 16.7 11.4 2.0 37 6.6 SW 19 30 10 16 1013.2 1013.1 0.0
26/11:15am 17.2 12.1 3.1 39 6.5 WNW 19 41 10 22 1013.1 1013.0 0.0
26/11:00am 16.6 13.1 3.7 42 6.0 WSW 11 22 6 12 1013.2 1013.1 0.0
26/10:30am 16.5 12.7 3.8 42 5.9 W 13 24 7 13 1013.0 1012.9 0.0
26/10:00am 16.2 12.0 5.6 49 5.1 NW 17 32 9 17 1012.7 1012.6 0.0
26/09:30am 15.0 10.1 5.0 51 4.7 NNW 20 28 11 15 1012.5 1012.4 0.0

Other Formats:

Comma delimited format used in spreadsheet applications
http://www.bom.gov.au/fwo/IDT60801/IDT60801.94970.axf

JavaScript Object Notation format (JSON) in row-major order
http://www.bom.gov.au/fwo/IDT60801/IDT60801.94970.json